createdAt,value
2022-12-17T00:00:00.687Z,98399.00
2022-12-17T00:02:43.070Z,98406.00
2022-12-17T00:05:28.163Z,98405.00
2022-12-17T00:08:14.221Z,98408.00
2022-12-17T00:10:56.892Z,98409.00
2022-12-17T00:13:39.422Z,98410.00
2022-12-17T00:16:22.588Z,98426.00
2022-12-17T00:19:04.883Z,98427.00
2022-12-17T00:21:49.755Z,98427.00
2022-12-17T00:24:31.992Z,98421.00
2022-12-17T00:27:14.271Z,98438.00
2022-12-17T00:29:56.536Z,98436.00
2022-12-17T00:32:41.325Z,98428.00
2022-12-17T00:35:24.072Z,98431.00
2022-12-17T00:38:08.959Z,98430.00
2022-12-17T00:40:51.224Z,98428.00
2022-12-17T00:43:34.883Z,98433.00
2022-12-17T00:46:17.422Z,98427.00
2022-12-17T00:49:00.221Z,98431.00
2022-12-17T00:51:43.883Z,98436.00
2022-12-17T00:54:29.163Z,98432.00
2022-12-17T00:57:11.625Z,98423.00
2022-12-17T00:59:53.947Z,98445.00
2022-12-17T01:02:39.289Z,98436.00
2022-12-17T01:05:22.547Z,98450.00
2022-12-17T01:08:04.806Z,98450.00
2022-12-17T01:10:49.878Z,98450.00
2022-12-17T01:13:32.474Z,98446.00
2022-12-17T01:16:18.893Z,98443.00
2022-12-17T01:19:01.222Z,98461.00
2022-12-17T01:21:43.560Z,98465.00
2022-12-17T01:24:26.072Z,98462.00
2022-12-17T01:27:11.027Z,98477.00
2022-12-17T01:29:53.189Z,98468.00
2022-12-17T01:32:35.460Z,98476.00
2022-12-17T01:35:17.987Z,98484.00
2022-12-17T01:38:00.984Z,98486.00
2022-12-17T01:40:43.343Z,98482.00
2022-12-17T01:43:28.948Z,98487.00
2022-12-17T01:46:11.421Z,98483.00
2022-12-17T01:48:56.637Z,98475.00
2022-12-17T01:51:39.859Z,98488.00
2022-12-17T01:54:22.360Z,98480.00
2022-12-17T01:57:04.807Z,98478.00
2022-12-17T01:59:54.173Z,98488.00
2022-12-17T02:02:36.273Z,98484.00
2022-12-17T02:05:19.018Z,98488.00
2022-12-17T02:08:09.979Z,98482.00
2022-12-17T02:10:57.725Z,98479.00
2022-12-17T02:13:46.595Z,98477.00
2022-12-17T02:16:36.418Z,98487.00
2022-12-17T02:19:24.334Z,98489.00
2022-12-17T02:22:09.723Z,98491.00
2022-12-17T02:24:58.756Z,98490.00
2022-12-17T02:27:44.416Z,98504.00
2022-12-17T02:30:26.968Z,98504.00
2022-12-17T02:33:10.095Z,98516.00
2022-12-17T02:35:56.860Z,98518.00
2022-12-17T02:38:41.848Z,98511.00
2022-12-17T02:41:27.929Z,98534.00
2022-12-17T02:44:13.355Z,98525.00
2022-12-17T02:46:57.150Z,98520.00
2022-12-17T02:49:39.851Z,98510.00
2022-12-17T02:52:23.539Z,98514.00
2022-12-17T02:55:06.035Z,98513.00
2022-12-17T02:57:53.646Z,98512.00
2022-12-17T03:00:39.657Z,98518.00
2022-12-17T03:03:22.468Z,98514.00
2022-12-17T03:06:04.844Z,98516.00
2022-12-17T03:08:47.278Z,98518.00
2022-12-17T03:11:29.524Z,98514.00
2022-12-17T03:14:11.802Z,98513.00
2022-12-17T03:16:56.897Z,98524.00
2022-12-17T03:19:39.178Z,98528.00
2022-12-17T03:22:21.473Z,98534.00
2022-12-17T03:25:03.759Z,98523.00
2022-12-17T03:27:46.099Z,98527.00
2022-12-17T03:30:31.074Z,98538.00
2022-12-17T03:33:19.647Z,98545.00
2022-12-17T03:36:02.058Z,98547.00
2022-12-17T03:38:44.343Z,98555.00
2022-12-17T03:41:26.610Z,98547.00
2022-12-17T03:44:08.668Z,98531.00
2022-12-17T03:46:51.083Z,98550.00
2022-12-17T03:49:35.977Z,98561.00
2022-12-17T03:52:18.298Z,98564.00
2022-12-17T03:55:00.400Z,98569.00
2022-12-17T03:57:42.679Z,98576.00
2022-12-17T04:00:26.505Z,98566.00
2022-12-17T04:03:09.038Z,98579.00
2022-12-17T04:05:54.380Z,98591.00
2022-12-17T04:08:36.728Z,98586.00
2022-12-17T04:11:19.116Z,98591.00
2022-12-17T04:14:01.611Z,98591.00
2022-12-17T04:16:49.432Z,98585.00
2022-12-17T04:19:31.803Z,98582.00
2022-12-17T04:22:16.918Z,98595.00
2022-12-17T04:24:59.218Z,98604.00
2022-12-17T04:27:41.579Z,98611.00
2022-12-17T04:30:24.934Z,98616.00
2022-12-17T04:33:07.263Z,98622.00
2022-12-17T04:35:49.530Z,98632.00
2022-12-17T04:38:34.508Z,98624.00
2022-12-17T04:41:16.841Z,98640.00
2022-12-17T04:44:02.955Z,98637.00
2022-12-17T04:46:47.059Z,98630.00
2022-12-17T04:49:29.461Z,98638.00
2022-12-17T04:52:11.891Z,98640.00
2022-12-17T04:54:57.117Z,98637.00
2022-12-17T04:57:39.462Z,98634.00
2022-12-17T05:00:23.296Z,98625.00
2022-12-17T05:03:17.504Z,98631.00
2022-12-17T05:05:59.815Z,98628.00
2022-12-17T05:08:51.012Z,98635.00
2022-12-17T05:11:44.310Z,98640.00
2022-12-17T05:14:26.589Z,98640.00
2022-12-17T05:17:08.940Z,98644.00
2022-12-17T05:19:51.244Z,98649.00
2022-12-17T05:22:33.617Z,98658.00
2022-12-17T05:25:15.896Z,98654.00
2022-12-17T05:28:01.511Z,98655.00
2022-12-17T05:30:43.792Z,98675.00
2022-12-17T05:33:26.124Z,98664.00
2022-12-17T05:36:08.415Z,98662.00
2022-12-17T05:38:53.426Z,98677.00
2022-12-17T05:41:35.776Z,98682.00
2022-12-17T05:44:20.980Z,98698.00
2022-12-17T05:47:03.305Z,98675.00
2022-12-17T05:49:45.587Z,98686.00
2022-12-17T05:52:42.616Z,98691.00
2022-12-17T05:55:25.237Z,98699.00
2022-12-17T05:58:07.547Z,98698.00
2022-12-17T06:00:52.458Z,98690.00
2022-12-17T06:03:35.111Z,98700.00
2022-12-17T06:06:17.867Z,98716.00
2022-12-17T06:09:00.186Z,98708.00
2022-12-17T06:11:42.611Z,98715.00
2022-12-17T06:14:24.946Z,98725.00
2022-12-17T06:17:10.598Z,98716.00
2022-12-17T06:19:52.876Z,98733.00
2022-12-17T06:22:35.240Z,98733.00
2022-12-17T06:25:17.528Z,98731.00
2022-12-17T06:28:00.111Z,98737.00
2022-12-17T06:30:42.398Z,98737.00
2022-12-17T06:33:27.455Z,98745.00
2022-12-17T06:36:10.920Z,98743.00
2022-12-17T06:38:53.236Z,98740.00
2022-12-17T06:41:41.411Z,98752.00
2022-12-17T06:44:23.735Z,98766.00
2022-12-17T06:47:06.132Z,98765.00
2022-12-17T06:49:51.148Z,98759.00
2022-12-17T06:52:33.399Z,98773.00
2022-12-17T06:55:15.701Z,98777.00
2022-12-17T06:57:57.966Z,98788.00
2022-12-17T07:00:40.304Z,98797.00
2022-12-17T07:03:26.401Z,98800.00
2022-12-17T07:06:11.351Z,98797.00
2022-12-17T07:08:53.640Z,98809.00
2022-12-17T07:11:36.953Z,98809.00
2022-12-17T07:14:19.320Z,98815.00
2022-12-17T07:17:01.445Z,98809.00
2022-12-17T07:19:43.682Z,98821.00
2022-12-17T07:22:28.536Z,98832.00
2022-12-17T07:25:10.838Z,98828.00
2022-12-17T07:27:53.178Z,98833.00
2022-12-17T07:30:35.452Z,98840.00
2022-12-17T07:33:19.307Z,98835.00
2022-12-17T07:36:01.671Z,98843.00
2022-12-17T07:39:03.034Z,98837.00
2022-12-17T07:41:45.311Z,98844.00
2022-12-17T07:44:27.554Z,98856.00
2022-12-17T07:47:09.860Z,98852.00
2022-12-17T07:49:52.171Z,98847.00
2022-12-17T07:52:34.503Z,98854.00
2022-12-17T07:55:19.818Z,98852.00
2022-12-17T07:58:02.133Z,98856.00
2022-12-17T08:00:49.094Z,98855.00
2022-12-17T08:03:31.818Z,98860.00
2022-12-17T08:06:14.253Z,98858.00
2022-12-17T08:08:56.532Z,98862.00
2022-12-17T08:11:41.531Z,98863.00
2022-12-17T08:14:23.848Z,98871.00
2022-12-17T08:17:06.237Z,98873.00
2022-12-17T08:19:48.636Z,98876.00
2022-12-17T08:22:30.910Z,98873.00
2022-12-17T08:25:13.240Z,98876.00
2022-12-17T08:27:58.149Z,98887.00
2022-12-17T08:30:40.678Z,98886.00
2022-12-17T08:33:23.014Z,98879.00
2022-12-17T08:36:08.642Z,98878.00
2022-12-17T08:38:50.902Z,98885.00
2022-12-17T08:41:33.193Z,98881.00
2022-12-17T08:44:18.059Z,98891.00
2022-12-17T08:47:00.371Z,98893.00
2022-12-17T08:49:42.703Z,98897.00
2022-12-17T08:52:28.024Z,98912.00
2022-12-17T08:55:10.377Z,98906.00
2022-12-17T08:57:52.660Z,98895.00
2022-12-17T09:00:37.603Z,98918.00
2022-12-17T09:03:20.084Z,98919.00
2022-12-17T09:06:02.548Z,98914.00
2022-12-17T09:08:45.031Z,98928.00
2022-12-17T09:11:27.370Z,98930.00
2022-12-17T09:14:09.658Z,98927.00
2022-12-17T09:16:54.686Z,98925.00
2022-12-17T09:19:37.015Z,98932.00
2022-12-17T09:22:19.290Z,98931.00
2022-12-17T09:25:01.638Z,98927.00
2022-12-17T09:27:43.985Z,98933.00
2022-12-17T09:30:27.564Z,98912.00
2022-12-17T09:33:12.583Z,98920.00
2022-12-17T09:35:55.303Z,98920.00
2022-12-17T09:38:37.599Z,98926.00
2022-12-17T09:41:32.326Z,98926.00
2022-12-17T09:44:18.719Z,98938.00
2022-12-17T09:47:06.822Z,98927.00
2022-12-17T09:49:52.960Z,98933.00
2022-12-17T09:52:38.544Z,98933.00
2022-12-17T09:55:31.003Z,98932.00
2022-12-17T09:58:13.562Z,98947.00
2022-12-17T10:01:00.736Z,98939.00
2022-12-17T10:03:44.748Z,98951.00
2022-12-17T10:06:33.676Z,98941.00
2022-12-17T10:09:29.695Z,98941.00
2022-12-17T10:12:13.098Z,98945.00
2022-12-17T10:14:55.368Z,98948.00
2022-12-17T10:17:38.443Z,98952.00
2022-12-17T10:20:30.444Z,98952.00
2022-12-17T10:23:15.317Z,98960.00
2022-12-17T10:26:20.507Z,98968.00
2022-12-17T10:29:02.772Z,98962.00
2022-12-17T10:31:45.924Z,98971.00
2022-12-17T10:34:31.216Z,98970.00
2022-12-17T10:37:13.678Z,98975.00
2022-12-17T10:39:59.381Z,98976.00
2022-12-17T10:42:43.121Z,98976.00
2022-12-17T10:45:37.025Z,98989.00
2022-12-17T10:48:25.652Z,98984.00
2022-12-17T10:51:07.957Z,98984.00
2022-12-17T10:53:50.275Z,98994.00
2022-12-17T10:56:41.281Z,98976.00
2022-12-17T10:59:27.363Z,98991.00
2022-12-17T11:02:13.168Z,98994.00
2022-12-17T11:05:15.429Z,98991.00
2022-12-17T11:07:58.495Z,98996.00
2022-12-17T11:10:44.538Z,99005.00
2022-12-17T11:13:32.846Z,99013.00
2022-12-17T11:16:15.978Z,99015.00
2022-12-17T11:19:04.283Z,99002.00
2022-12-17T11:21:49.242Z,99000.00
2022-12-17T11:24:36.631Z,99026.00
2022-12-17T11:27:21.953Z,99016.00
2022-12-17T11:30:07.101Z,99027.00
2022-12-17T11:33:00.160Z,99035.00
2022-12-17T11:35:49.529Z,99032.00
2022-12-17T11:38:45.228Z,99035.00
2022-12-17T11:41:31.544Z,99048.00
2022-12-17T11:44:18.543Z,99047.00
2022-12-17T11:47:06.448Z,99051.00
2022-12-17T11:49:53.467Z,99051.00
2022-12-17T11:52:40.174Z,99038.00
2022-12-17T11:55:31.714Z,99058.00
2022-12-17T11:58:17.762Z,99051.00
2022-12-17T12:01:07.505Z,99055.00
2022-12-17T12:03:57.877Z,99054.00
2022-12-17T12:06:49.023Z,99047.00
2022-12-17T12:09:34.816Z,99061.00
2022-12-17T12:12:22.993Z,99055.00
2022-12-17T12:15:12.569Z,99066.00
2022-12-17T12:17:58.943Z,99065.00
2022-12-17T12:21:06.191Z,99061.00
2022-12-17T12:23:55.958Z,99064.00
2022-12-17T12:26:39.263Z,99076.00
2022-12-17T12:29:30.916Z,99072.00
2022-12-17T12:32:17.473Z,99071.00
2022-12-17T12:35:00.655Z,99071.00
2022-12-17T12:37:46.299Z,99084.00
2022-12-17T12:40:32.165Z,99081.00
2022-12-17T12:43:17.875Z,99078.00
2022-12-17T12:46:05.832Z,99087.00
2022-12-17T12:48:54.806Z,99082.00
2022-12-17T12:51:40.056Z,99086.00
2022-12-17T12:54:41.287Z,99094.00
2022-12-17T12:57:41.861Z,99102.00
2022-12-17T13:00:37.784Z,99099.00
2022-12-17T13:03:30.460Z,99111.00
2022-12-17T13:06:01.859Z,99107.00
2022-12-17T13:08:31.721Z,99106.00
2022-12-17T13:11:14.502Z,99113.00
2022-12-17T13:13:56.222Z,99106.00
2022-12-17T13:16:45.431Z,99124.00
2022-12-17T13:19:23.741Z,99135.00
2022-12-17T13:21:53.683Z,99133.00
2022-12-17T13:24:27.878Z,99140.00
2022-12-17T13:27:00.384Z,99138.00
2022-12-17T13:29:32.318Z,99147.00
2022-12-17T13:32:18.815Z,99147.00
2022-12-17T13:35:10.316Z,99156.00
2022-12-17T13:37:46.004Z,99152.00
2022-12-17T13:40:24.972Z,99152.00
2022-12-17T13:42:58.252Z,99162.00
2022-12-17T13:45:29.874Z,99166.00
2022-12-17T13:48:01.111Z,99168.00
2022-12-17T13:50:35.613Z,99171.00
2022-12-17T13:53:13.452Z,99170.00
2022-12-17T13:55:43.629Z,99173.00
2022-12-17T13:58:28.011Z,99178.00
2022-12-17T14:01:08.257Z,99179.00
2022-12-17T14:06:31.085Z,99195.00
2022-12-17T14:09:01.523Z,99205.00
2022-12-17T14:11:44.083Z,99200.00
2022-12-17T14:14:33.512Z,99221.00
2022-12-17T14:17:03.243Z,99213.00
2022-12-17T14:19:35.787Z,99220.00
2022-12-17T14:22:05.786Z,99223.00
2022-12-17T14:24:35.976Z,99223.00
2022-12-17T14:27:05.965Z,99229.00
2022-12-17T14:29:49.128Z,99221.00
2022-12-17T14:32:27.160Z,99222.00
2022-12-17T14:35:00.679Z,99235.00
2022-12-17T14:37:31.858Z,99237.00
2022-12-17T14:40:04.991Z,99248.00
2022-12-17T14:42:38.433Z,99243.00
2022-12-17T14:45:25.387Z,99250.00
2022-12-17T14:47:56.696Z,99262.00
2022-12-17T14:50:30.449Z,99263.00
2022-12-17T14:53:01.846Z,99257.00
2022-12-17T14:55:37.581Z,99274.00
2022-12-17T14:58:25.560Z,99271.00
2022-12-17T15:01:02.442Z,99275.00
2022-12-17T15:03:36.224Z,99285.00
2022-12-17T15:06:08.225Z,99285.00
2022-12-17T15:08:40.077Z,99289.00
2022-12-17T15:11:10.599Z,99295.00
2022-12-17T15:13:40.659Z,99298.00
2022-12-17T15:16:13.733Z,99298.00
2022-12-17T15:18:43.608Z,99308.00
2022-12-17T15:21:14.860Z,99293.00
2022-12-17T15:23:46.709Z,99319.00
2022-12-17T15:26:17.564Z,99316.00
2022-12-17T15:28:48.672Z,99319.00
2022-12-17T15:31:24.978Z,99328.00
2022-12-17T15:33:56.669Z,99322.00
2022-12-17T15:36:26.900Z,99335.00
2022-12-17T15:38:56.839Z,99332.00
2022-12-17T15:41:39.400Z,99324.00
2022-12-17T15:44:09.271Z,99339.00
2022-12-17T15:46:41.845Z,99338.00
2022-12-17T15:49:11.775Z,99330.00
2022-12-17T15:51:41.619Z,99330.00
2022-12-17T15:54:11.548Z,99330.00
2022-12-17T15:56:41.429Z,99327.00
2022-12-17T15:59:11.376Z,99338.00
2022-12-17T16:01:44.485Z,99332.00
2022-12-17T16:04:21.543Z,99332.00
2022-12-17T16:06:54.516Z,99345.00
2022-12-17T16:09:27.173Z,99342.00
2022-12-17T16:11:57.551Z,99339.00
2022-12-17T16:14:27.547Z,99354.00
2022-12-17T16:17:00.114Z,99347.00
2022-12-17T16:19:30.042Z,99356.00
2022-12-17T16:21:59.921Z,99363.00
2022-12-17T16:24:29.801Z,99364.00
2022-12-17T16:27:04.341Z,99371.00
2022-12-17T16:29:34.739Z,99369.00
2022-12-17T16:32:07.784Z,99377.00
2022-12-17T16:34:37.729Z,99380.00
2022-12-17T16:37:10.660Z,99373.00
2022-12-17T16:39:40.603Z,99389.00
2022-12-17T16:42:11.601Z,99393.00
2022-12-17T16:44:41.569Z,99392.00
2022-12-17T16:47:14.120Z,99397.00
2022-12-17T16:49:44.104Z,99397.00
2022-12-17T16:52:14.011Z,99394.00
2022-12-17T16:54:43.916Z,99398.00
2022-12-17T16:57:13.740Z,99395.00
2022-12-17T16:59:43.696Z,99395.00
2022-12-17T17:02:18.661Z,99398.00
2022-12-17T17:04:48.742Z,99412.00
2022-12-17T17:07:18.800Z,99414.00
2022-12-17T17:09:48.677Z,99405.00
2022-12-17T17:12:18.557Z,99412.00
2022-12-17T17:14:48.421Z,99406.00
2022-12-17T17:17:54.550Z,99416.00
2022-12-17T17:20:11.897Z,99416.00
2022-12-17T17:22:41.874Z,99422.00
2022-12-17T17:25:12.243Z,99428.00
2022-12-17T17:27:42.138Z,99432.00
2022-12-17T17:30:13.733Z,99433.00
2022-12-17T17:32:46.306Z,99432.00
2022-12-17T17:35:16.531Z,99436.00
2022-12-17T17:37:46.461Z,99441.00
2022-12-17T17:40:17.033Z,99447.00
2022-12-17T17:42:51.536Z,99442.00
2022-12-17T17:45:22.866Z,99459.00
2022-12-17T17:47:55.344Z,99468.00
2022-12-17T17:50:25.235Z,99472.00
2022-12-17T17:52:55.094Z,99474.00
2022-12-17T17:55:25.058Z,99480.00
2022-12-17T17:57:55.958Z,99477.00
2022-12-17T18:00:25.890Z,99483.00
2022-12-17T18:02:58.481Z,99475.00
2022-12-17T18:05:28.564Z,99481.00
2022-12-17T18:07:58.434Z,99483.00
2022-12-17T18:10:29.200Z,99483.00
2022-12-17T18:13:11.453Z,99484.00
2022-12-17T18:15:41.390Z,99492.00
2022-12-17T18:18:14.769Z,99489.00
2022-12-17T18:20:44.880Z,99490.00
2022-12-17T18:23:14.688Z,99496.00
2022-12-17T18:25:44.547Z,99473.00
2022-12-17T18:28:14.463Z,99502.00
2022-12-17T18:30:44.407Z,99502.00
2022-12-17T18:33:16.908Z,99501.00
2022-12-17T18:35:46.800Z,99504.00
2022-12-17T18:38:16.630Z,99510.00
2022-12-17T18:40:46.832Z,99513.00
2022-12-17T18:43:26.119Z,99523.00
2022-12-17T18:45:56.124Z,99523.00
2022-12-17T18:48:30.287Z,99513.00
2022-12-17T18:51:07.442Z,99521.00
2022-12-17T18:53:37.317Z,99527.00
2022-12-17T18:56:11.081Z,99532.00
2022-12-17T18:58:41.217Z,99539.00
2022-12-17T19:01:11.183Z,99544.00
2022-12-17T19:03:43.812Z,99551.00
2022-12-17T19:06:13.901Z,99541.00
2022-12-17T19:08:43.930Z,99557.00
2022-12-17T19:11:19.799Z,99547.00
2022-12-17T19:13:50.187Z,99556.00
2022-12-17T19:16:22.198Z,99548.00
2022-12-17T19:18:57.403Z,99574.00
2022-12-17T19:21:28.068Z,99569.00
2022-12-17T19:24:00.494Z,99569.00
2022-12-17T19:26:30.670Z,99570.00
2022-12-17T19:29:02.143Z,99574.00
2022-12-17T19:31:34.302Z,99578.00
2022-12-17T19:34:08.247Z,99580.00
2022-12-17T19:36:39.182Z,99582.00
2022-12-17T19:39:10.792Z,99581.00
2022-12-17T19:41:40.715Z,99586.00
2022-12-17T19:44:13.620Z,99592.00
2022-12-17T19:46:43.767Z,99600.00
2022-12-17T19:49:17.465Z,99594.00
2022-12-17T19:51:47.691Z,99603.00
2022-12-17T19:54:17.904Z,99588.00
2022-12-17T19:56:47.900Z,99594.00
2022-12-17T19:59:17.851Z,99591.00
2022-12-17T20:01:49.322Z,99593.00
2022-12-17T20:04:21.982Z,99609.00
2022-12-17T20:06:51.934Z,99606.00
2022-12-17T20:09:21.731Z,99601.00
2022-12-17T20:11:51.587Z,99607.00
2022-12-17T20:14:23.833Z,99618.00
2022-12-17T20:16:55.946Z,99618.00
2022-12-17T20:19:31.217Z,99622.00
2022-12-17T20:22:01.985Z,99621.00
2022-12-17T20:24:32.388Z,99618.00
2022-12-17T20:27:02.528Z,99628.00
2022-12-17T20:29:32.748Z,99623.00
2022-12-17T20:32:04.085Z,99634.00
2022-12-17T20:34:36.700Z,99636.00
2022-12-17T20:37:06.653Z,99632.00
2022-12-17T20:39:36.602Z,99640.00
2022-12-17T20:42:07.593Z,99647.00
2022-12-17T20:44:37.637Z,99645.00
2022-12-17T20:47:07.674Z,99643.00
2022-12-17T20:49:40.147Z,99653.00
2022-12-17T20:52:10.135Z,99658.00
2022-12-17T20:54:40.119Z,99655.00
2022-12-17T20:57:10.007Z,99657.00
2022-12-17T20:59:39.912Z,99658.00
2022-12-17T21:02:10.036Z,99674.00
2022-12-17T21:04:42.626Z,99679.00
2022-12-17T21:07:12.577Z,99673.00
2022-12-17T21:09:42.364Z,99684.00
2022-12-17T21:12:13.645Z,99685.00
2022-12-17T21:14:43.622Z,99687.00
2022-12-17T21:17:14.838Z,99679.00
2022-12-17T21:19:47.456Z,99688.00
2022-12-17T21:22:17.533Z,99689.00
2022-12-17T21:24:47.364Z,99690.00
2022-12-17T21:27:17.335Z,99695.00
2022-12-17T21:29:47.272Z,99696.00
2022-12-17T21:32:17.137Z,99699.00
2022-12-17T21:34:49.660Z,99706.00
2022-12-17T21:37:19.691Z,99712.00
2022-12-17T21:39:49.638Z,99705.00
2022-12-17T21:42:31.878Z,99706.00
2022-12-17T21:45:01.804Z,99717.00
2022-12-17T21:47:31.850Z,99715.00
2022-12-17T21:50:04.345Z,99710.00
2022-12-17T21:52:34.249Z,99711.00
2022-12-17T21:55:04.126Z,99711.00
2022-12-17T21:57:33.913Z,99712.00
2022-12-17T22:00:03.819Z,99714.00
2022-12-17T22:02:34.313Z,99716.00
2022-12-17T22:05:08.243Z,99717.00
2022-12-17T22:07:42.414Z,99713.00
2022-12-17T22:10:43.356Z,99718.00
2022-12-17T22:13:20.317Z,99728.00
2022-12-17T22:15:50.355Z,99734.00
2022-12-17T22:18:20.269Z,99732.00
2022-12-17T22:21:02.563Z,99722.00
2022-12-17T22:23:33.036Z,99717.00
2022-12-17T22:26:03.230Z,99721.00
2022-12-17T22:28:33.071Z,99736.00
2022-12-17T22:31:19.659Z,99732.00
2022-12-17T22:34:18.820Z,99731.00
2022-12-17T22:38:56.733Z,99714.00
2022-12-17T22:44:30.962Z,99742.00
2022-12-17T22:44:35.709Z,99735.00
2022-12-17T22:45:26.620Z,99735.00
2022-12-17T22:47:56.553Z,99742.00
2022-12-17T22:50:28.669Z,99741.00
2022-12-17T22:53:08.275Z,99747.00
2022-12-17T22:55:38.584Z,99747.00
2022-12-17T22:58:08.889Z,99752.00
2022-12-17T23:00:39.271Z,99756.00
2022-12-17T23:03:09.504Z,99754.00
2022-12-17T23:05:39.595Z,99763.00
2022-12-17T23:08:15.010Z,99752.00
2022-12-17T23:10:45.075Z,99748.00
2022-12-17T23:13:14.983Z,99756.00
2022-12-17T23:15:44.863Z,99752.00
2022-12-17T23:18:15.747Z,99747.00
2022-12-17T23:20:45.567Z,99755.00
2022-12-17T23:23:18.067Z,99759.00
2022-12-17T23:25:47.966Z,99763.00
2022-12-17T23:28:17.935Z,99774.00
2022-12-17T23:30:47.754Z,99768.00
2022-12-17T23:33:17.627Z,99759.00
2022-12-17T23:35:47.562Z,99767.00
2022-12-17T23:38:19.984Z,99767.00
2022-12-17T23:40:49.904Z,99761.00
2022-12-17T23:43:19.689Z,99767.00
2022-12-17T23:45:49.472Z,99773.00
2022-12-17T23:48:19.378Z,99770.00
2022-12-17T23:50:49.194Z,99777.00
2022-12-17T23:53:21.631Z,99772.00
2022-12-17T23:55:52.021Z,99777.00
2022-12-17T23:58:22.658Z,99776.00
